Time;durP1;ratioP1;P1;durP2;ratioP2;P2;SDS_P1;SDS_P2;PMS_P1;PMS_P2;Temp;Humidity;BMP_temperature;BMP_pressure;BME280_temperature;BME280_humidity;BME280_pressure;Samples;Min_cycle;Max_cycle;Signal;HPM_P1;HPM_P2
2023/01/12 00:01:25;;;;;;;16.63;9.50;;;;;;;1.74;80.30;95366.50;4952522;29;20107;-76
2023/01/12 00:03:53;;;;;;;13.63;8.80;;;;;;;1.28;80.58;95290.25;4954355;29;20093;-76
2023/01/12 00:06:22;;;;;;;14.95;9.13;;;;;;;1.82;79.96;95370.66;4954133;28;20038;-75
2023/01/12 00:08:50;;;;;;;15.55;8.73;;;;;;;1.63;80.26;95329.78;4953630;29;20032;-75
2023/01/12 00:11:17;;;;;;;19.30;9.50;;;;;;;1.72;79.72;95328.50;4954463;29;20071;-75
2023/01/12 00:13:43;;;;;;;15.43;9.38;;;;;;;2.30;79.96;95412.66;4954237;29;20104;-75
2023/01/12 00:19:11;;;;;;;15.43;8.77;;;;;;;2.37;78.37;95394.28;4954234;29;20041;-75
2023/01/12 00:22:19;;;;;;;13.77;8.18;;;;;;;2.52;78.69;95411.25;4954315;28;20023;-75
2023/01/12 00:24:41;;;;;;;17.85;9.18;;;;;;;2.35;78.20;95370.97;4992466;28;20038;-76
2023/01/12 00:27:15;;;;;;;14.60;8.23;;;;;;;2.48;78.13;95414.53;4975981;28;20101;-75
2023/01/12 00:29:42;;;;;;;16.15;7.88;;;;;;;2.07;78.28;95334.00;4976410;28;20038;-76
2023/01/12 00:32:17;;;;;;;15.20;8.02;;;;;;;2.57;77.96;95424.50;4976911;28;20038;-76
2023/01/12 00:34:43;;;;;;;14.43;8.52;;;;;;;2.45;78.06;95422.78;4978402;28;20555;-76
2023/01/12 00:37:11;;;;;;;14.95;8.70;;;;;;;2.27;78.36;95419.16;4976753;28;20527;-76
2023/01/12 00:39:37;;;;;;;16.02;7.93;;;;;;;2.36;78.65;95416.25;4974647;28;20164;-76
2023/01/12 00:47:33;;;;;;;13.88;8.18;;;;;;;2.11;79.82;95409.25;4993933;28;20044;-77
2023/01/12 00:49:59;;;;;;;12.70;7.93;;;;;;;2.01;80.09;95416.75;4975489;28;20140;-76
2023/01/12 00:52:24;;;;;;;14.30;7.88;;;;;;;2.02;79.99;95410.50;4975497;28;20065;-75
2023/01/12 00:54:50;;;;;;;13.57;7.90;;;;;;;1.67;79.73;95355.31;4975945;28;20042;-76
2023/01/12 00:57:18;;;;;;;14.25;8.65;;;;;;;2.18;79.97;95404.75;4976937;28;20118;-76
2023/01/12 00:59:46;;;;;;;14.75;8.60;;;;;;;2.07;79.61;95402.81;4977072;28;20065;-76
2023/01/12 01:02:13;;;;;;;13.43;8.43;;;;;;;2.04;80.14;95410.31;4975012;28;20144;-76
2023/01/12 01:04:38;;;;;;;14.68;8.55;;;;;;;2.07;79.93;95399.41;4976936;28;20034;-75
2023/01/12 01:07:04;;;;;;;14.65;9.00;;;;;;;2.18;79.51;95404.75;4975116;28;20030;-75
2023/01/12 01:09:31;;;;;;;14.95;8.40;;;;;;;2.17;79.70;95384.03;4991444;28;20042;-75
2023/01/12 01:11:58;;;;;;;16.42;9.35;;;;;;;2.24;79.80;95396.03;4975760;28;20022;-75
2023/01/12 01:14:25;;;;;;;16.50;9.23;;;;;;;2.43;79.16;95407.31;4991678;28;20145;-76
2023/01/12 01:16:52;;;;;;;16.27;9.05;;;;;;;2.33;79.26;95407.81;5008590;28;20364;-76
2023/01/12 01:19:21;;;;;;;18.48;8.50;;;;;;;2.29;79.27;95409.25;4975463;28;20448;-76
2023/01/12 01:21:46;;;;;;;15.88;8.68;;;;;;;2.19;79.33;95413.41;4975896;28;20081;-75
2023/01/12 01:24:13;;;;;;;17.25;9.52;;;;;;;1.79;80.04;95340.50;4975021;28;20066;-75
2023/01/12 01:26:39;;;;;;;16.02;9.15;;;;;;;2.27;79.43;95403.44;4974035;28;20152;-76
2023/01/12 01:29:07;;;;;;;17.23;9.40;;;;;;;2.13;79.80;95401.19;4991362;28;20092;-75
2023/01/12 01:31:32;;;;;;;16.15;9.68;;;;;;;2.01;80.16;95406.28;4975075;28;20125;-75
2023/01/12 01:33:59;;;;;;;17.40;9.15;;;;;;;1.87;80.60;95420.50;4975024;28;20476;-75
2023/01/12 01:36:26;;;;;;;16.75;9.32;;;;;;;1.79;81.11;95413.72;4975215;28;20064;-75
2023/01/12 01:38:55;;;;;;;14.57;8.75;;;;;;;1.76;81.67;95421.19;4974843;28;20117;-75
2023/01/12 01:41:26;;;;;;;15.65;8.63;;;;;;;1.18;81.50;95329.91;4974914;28;20100;-75
2023/01/12 01:43:54;;;;;;;15.07;9.07;;;;;;;1.66;81.71;95432.13;4975262;28;20085;-75
2023/01/12 01:46:48;;;;;;;19.00;9.15;;;;;;;1.57;82.30;95428.16;4974842;28;20081;-75
2023/01/12 01:49:33;;;;;;;14.85;9.32;;;;;;;1.58;82.44;95424.53;4990463;28;20107;-76
2023/01/12 01:52:37;;;;;;;15.80;8.57;;;;;;;1.55;82.05;95435.41;4987748;28;20069;-76
2023/01/12 01:55:10;;;;;;;16.00;9.15;;;;;;;1.44;82.11;95418.59;4976947;28;20053;-76
2023/01/12 01:58:04;;;;;;;16.15;9.55;;;;;;;1.36;82.09;95404.97;5007503;28;20599;-76
2023/01/12 02:00:31;;;;;;;15.65;9.00;;;;;;;1.50;82.17;95430.81;4974902;28;20121;-76
2023/01/12 02:03:02;;;;;;;15.82;9.00;;;;;;;1.49;82.47;95429.22;4974784;28;20038;-75
2023/01/12 02:05:29;;;;;;;15.05;9.02;;;;;;;1.58;81.86;95435.00;4974363;28;20519;-75
2023/01/12 02:08:02;;;;;;;13.90;8.32;;;;;;;1.63;81.85;95432.53;4974618;28;20703;-75
2023/01/12 02:10:28;;;;;;;15.13;9.07;;;;;;;1.70;81.59;95424.66;4971219;28;20042;-75
2023/01/12 02:19:13;;;;;;;16.65;9.35;;;;;;;1.76;81.85;95431.63;4992837;28;20057;-74
2023/01/12 02:21:44;;;;;;;16.83;9.15;;;;;;;1.85;81.28;95430.38;4990513;28;20121;-74
2023/01/12 02:24:19;;;;;;;15.57;8.35;;;;;;;1.87;81.43;95423.13;4988902;28;20047;-74
2023/01/12 02:27:09;;;;;;;18.00;9.77;;;;;;;1.91;80.73;95419.03;4989959;28;20038;-74
2023/01/12 02:30:00;;;;;;;17.02;9.68;;;;;;;1.28;81.30;95332.06;4989935;28;20522;-74
2023/01/12 02:33:07;;;;;;;18.20;10.30;;;;;;;1.96;81.13;95421.84;4994882;28;20038;-75
2023/01/12 02:36:12;;;;;;;17.30;8.88;;;;;;;1.81;81.36;95423.97;4994684;28;20038;-74
2023/01/12 02:38:49;;;;;;;14.90;9.18;;;;;;;1.46;81.13;95372.13;4972192;28;20039;-74
2023/01/12 02:44:38;;;;;;;16.73;9.13;;;;;;;1.47;81.00;95357.25;4994847;28;20052;-74
2023/01/12 02:47:09;;;;;;;15.32;8.77;;;;;;;1.90;80.95;95417.47;4994422;28;20106;-74
2023/01/12 02:49:43;;;;;;;17.35;9.80;;;;;;;1.86;81.01;95422.31;4994053;28;20057;-74
2023/01/12 02:52:14;;;;;;;16.77;9.30;;;;;;;2.00;80.74;95422.19;4976417;28;20069;-74
2023/01/12 02:54:42;;;;;;;18.27;10.48;;;;;;;1.72;81.16;95393.88;4994461;28;20033;-74
2023/01/12 02:57:09;;;;;;;23.75;9.77;;;;;;;1.64;81.10;95375.81;4994470;28;20069;-76
2023/01/12 02:59:38;;;;;;;17.73;9.40;;;;;;;1.69;81.19;95404.72;4976241;28;20077;-76
2023/01/12 03:02:15;;;;;;;17.60;10.75;;;;;;;1.44;81.79;95379.41;4994077;28;20128;-76
2023/01/12 03:04:41;;;;;;;19.08;10.45;;;;;;;0.61;81.75;95248.09;4993531;28;20041;-76
2023/01/12 03:07:28;;;;;;;16.15;8.82;;;;;;;1.69;81.71;95417.81;4993236;28;20030;-76
2023/01/12 03:10:32;;;;;;;18.73;9.00;;;;;;;1.65;82.07;95409.59;4993357;28;20031;-76
2023/01/12 03:13:04;;;;;;;18.30;8.73;;;;;;;1.21;82.19;95331.31;4993337;28;20026;-76
2023/01/12 03:15:31;;;;;;;17.75;9.80;;;;;;;1.23;82.06;95327.47;4993690;28;20457;-76
2023/01/12 03:18:00;;;;;;;20.25;10.32;;;;;;;1.34;81.97;95341.66;4975903;28;20026;-75
2023/01/12 03:20:31;;;;;;;16.58;8.95;;;;;;;1.74;82.06;95395.25;4975924;28;20096;-76
2023/01/12 03:23:04;;;;;;;17.05;9.35;;;;;;;1.54;81.86;95344.94;4992919;28;20129;-75
2023/01/12 03:25:33;;;;;;;18.63;9.48;;;;;;;1.89;81.18;95392.31;4975677;28;20030;-75
2023/01/12 03:28:03;;;;;;;15.98;9.00;;;;;;;1.68;81.26;95366.56;4993239;28;20646;-75
2023/01/12 03:30:42;;;;;;;15.80;8.80;;;;;;;1.39;81.87;95345.25;4993366;28;20038;-75
2023/01/12 03:33:09;;;;;;;17.25;9.43;;;;;;;1.78;82.03;95414.72;4975589;28;20511;-75
2023/01/12 03:35:39;;;;;;;16.67;8.77;;;;;;;1.78;82.07;95409.50;4992848;28;20034;-75
2023/01/12 03:38:18;;;;;;;14.02;8.27;;;;;;;1.67;82.42;95391.09;4993230;28;20030;-75
2023/01/12 03:40:55;;;;;;;15.43;8.93;;;;;;;1.60;82.29;95379.88;4993117;28;20357;-75
2023/01/12 03:43:29;;;;;;;15.02;8.30;;;;;;;1.80;82.07;95410.09;4991438;28;20185;-75
2023/01/12 03:46:00;;;;;;;15.88;8.90;;;;;;;1.20;82.52;95329.72;4975256;28;20091;-75
2023/01/12 03:48:41;;;;;;;14.97;8.20;;;;;;;1.72;82.52;95409.56;4993099;28;20042;-75
2023/01/12 03:51:18;;;;;;;17.55;8.88;;;;;;;1.09;83.05;95323.34;4993006;28;20087;-76
2023/01/12 03:53:48;;;;;;;20.58;10.55;;;;;;;1.75;83.26;95394.25;4992938;28;20034;-76
2023/01/12 03:56:16;;;;;;;17.70;9.77;;;;;;;1.66;83.29;95395.53;4993176;28;20109;-75
2023/01/12 03:58:43;;;;;;;20.30;9.90;;;;;;;1.04;83.59;95318.75;4992298;28;20038;-75
2023/01/12 04:01:08;;;;;;;16.67;9.07;;;;;;;1.46;83.69;95379.16;4992772;28;20425;-76
2023/01/12 04:03:34;;;;;;;14.40;8.48;;;;;;;1.49;83.70;95376.13;4992106;28;20026;-75
2023/01/12 04:05:59;;;;;;;15.20;8.98;;;;;;;1.43;84.17;95375.19;4992386;28;20095;-76
2023/01/12 04:08:26;;;;;;;16.00;8.85;;;;;;;1.51;84.29;95403.69;4992521;28;20041;-75
2023/01/12 04:10:52;;;;;;;15.82;9.55;;;;;;;1.44;83.86;95392.47;4974698;28;20034;-76
2023/01/12 04:13:17;;;;;;;16.13;8.80;;;;;;;1.53;84.13;95401.63;4974579;28;20037;-76
2023/01/12 04:15:45;;;;;;;18.77;10.10;;;;;;;1.24;83.85;95344.75;4992325;28;20042;-76
2023/01/12 04:18:12;;;;;;;15.88;8.73;;;;;;;1.32;83.95;95357.56;4992777;28;20081;-76
2023/01/12 04:20:37;;;;;;;17.05;9.55;;;;;;;1.57;83.73;95378.50;4992190;28;20029;-76
2023/01/12 04:23:04;;;;;;;18.02;8.75;;;;;;;1.36;83.44;95347.50;4974386;28;20050;-76
2023/01/12 04:25:30;;;;;;;17.80;8.95;;;;;;;1.40;83.13;95344.22;4992155;28;20103;-76
2023/01/12 04:27:59;;;;;;;17.15;9.60;;;;;;;1.44;82.81;95329.75;4992415;28;20046;-76
2023/01/12 04:30:27;;;;;;;16.30;9.25;;;;;;;1.89;82.77;95400.97;4992482;28;20030;-76
2023/01/12 04:32:53;;;;;;;17.45;10.15;;;;;;;1.43;82.73;95346.44;4992312;28;20026;-76
2023/01/12 04:35:18;;;;;;;17.80;9.95;;;;;;;1.39;83.02;95336.59;4974356;28;20041;-76
2023/01/12 04:37:44;;;;;;;17.65;9.93;;;;;;;1.47;82.96;95362.47;4974355;28;20105;-76
2023/01/12 04:40:12;;;;;;;16.05;8.85;;;;;;;1.48;83.23;95377.16;4992117;28;20045;-77
2023/01/12 04:43:03;;;;;;;19.27;8.88;;;;;;;1.32;83.32;95347.09;4992198;28;20041;-76
2023/01/12 04:45:37;;;;;;;16.80;9.50;;;;;;;1.30;83.17;95330.81;4991605;28;20461;-76
2023/01/12 04:48:08;;;;;;;19.00;9.32;;;;;;;1.63;83.26;95382.06;4991773;28;20611;-76
2023/01/12 04:50:34;;;;;;;17.15;9.38;;;;;;;1.77;83.52;95396.63;4973850;28;20041;-76
2023/01/12 04:53:04;;;;;;;17.52;9.68;;;;;;;1.79;83.52;95420.75;4991606;28;20034;-76
2023/01/12 04:55:30;;;;;;;18.70;9.73;;;;;;;1.83;83.62;95421.94;4991415;28;20034;-76
2023/01/12 04:57:56;;;;;;;17.52;8.27;;;;;;;1.51;83.27;95374.13;4991724;28;20035;-75
2023/01/12 05:00:22;;;;;;;15.27;9.32;;;;;;;1.81;83.53;95419.53;4991843;28;20092;-75
2023/01/12 05:02:48;;;;;;;20.33;8.57;;;;;;;1.73;82.99;95395.47;4991555;28;20584;-76
2023/01/12 05:05:13;;;;;;;17.52;8.75;;;;;;;1.83;83.05;95425.34;4974221;28;20117;-76
2023/01/12 05:10:21;;;;;;;19.15;9.55;;;;;;;1.40;83.22;95354.69;4973476;28;20058;-76
2023/01/12 05:10:24;;;;;;;19.75;10.63;;;;;;;1.84;82.60;95429.56;4989877;28;20042;-76
2023/01/12 05:12:49;;;;;;;19.80;10.60;;;;;;;1.82;82.91;95428.19;4989152;28;20571;-76
2023/01/12 05:15:15;;;;;;;22.95;10.95;;;;;;;1.77;82.85;95413.13;4985966;28;20061;-76
2023/01/12 05:17:40;;;;;;;16.38;9.77;;;;;;;1.84;82.60;95424.34;4979959;28;20042;-76
2023/01/12 05:20:07;;;;;;;19.60;10.82;;;;;;;1.90;83.17;95433.16;4968349;28;20041;-76
2023/01/12 05:22:33;;;;;;;19.67;11.20;;;;;;;1.82;82.87;95426.38;4980615;28;20146;-75
2023/01/12 05:24:58;;;;;;;19.95;10.05;;;;;;;1.96;83.49;95447.19;4980643;28;20108;-76
2023/01/12 05:27:23;;;;;;;23.35;9.77;;;;;;;1.97;83.22;95443.56;4953440;28;20035;-77
2023/01/12 05:29:49;;;;;;;21.63;10.23;;;;;;;1.88;83.06;95414.25;4957083;28;21543;-76
2023/01/12 05:32:14;;;;;;;24.55;11.18;;;;;;;1.72;82.85;95380.78;4953990;28;20046;-76
2023/01/12 05:34:41;;;;;;;22.52;11.20;;;;;;;2.09;82.50;95440.03;4976888;28;20054;-76
2023/01/12 05:37:06;;;;;;;18.08;10.20;;;;;;;1.69;83.16;95405.53;4945852;28;20043;-76
2023/01/12 05:39:32;;;;;;;20.13;10.98;;;;;;;1.80;83.58;95425.78;4981750;28;20034;-77
2023/01/12 05:44:41;;;;;;;24.13;10.27;;;;;;;1.73;83.19;95427.66;4981913;28;20104;-77
2023/01/12 05:47:06;;;;;;;26.85;11.50;;;;;;;1.60;83.59;95422.53;4964867;28;20034;-77
2023/01/12 05:49:32;;;;;;;24.63;11.18;;;;;;;1.96;84.05;95482.00;4981537;28;20042;-79
2023/01/12 05:51:58;;;;;;;23.77;11.75;;;;;;;1.93;83.88;95469.34;4971397;28;20643;-78
2023/01/12 05:54:25;;;;;;;16.90;9.32;;;;;;;1.27;83.81;95399.19;4977330;28;20045;-77
2023/01/12 05:56:51;;;;;;;19.08;10.43;;;;;;;1.60;84.24;95447.84;4978377;28;20061;-77
2023/01/12 05:59:16;;;;;;;27.13;11.10;;;;;;;1.88;84.48;95484.88;4979910;28;20038;-77
2023/01/12 06:01:42;;;;;;;22.63;11.55;;;;;;;1.99;84.06;95486.78;4973545;28;20145;-76
2023/01/12 06:04:09;;;;;;;18.98;10.18;;;;;;;1.84;83.96;95460.16;4977906;28;20034;-78
2023/01/12 06:06:34;;;;;;;20.15;10.40;;;;;;;1.43;84.05;95413.56;4978077;28;20045;-78
2023/01/12 06:09:01;;;;;;;20.48;10.52;;;;;;;1.39;83.77;95401.94;4961462;28;20081;-78
2023/01/12 06:14:12;;;;;;;21.58;11.20;;;;;;;1.25;84.38;95389.97;4978071;28;20139;-78
2023/01/12 06:16:41;;;;;;;23.30;10.82;;;;;;;1.82;84.67;95478.69;4960772;28;20046;-80
2023/01/12 06:19:07;;;;;;;21.00;10.30;;;;;;;1.65;84.92;95455.88;4975503;28;20037;-81
2023/01/12 06:21:33;;;;;;;20.13;10.38;;;;;;;1.33;84.89;95408.81;4945740;28;20590;-79
2023/01/12 06:23:58;;;;;;;20.05;10.95;;;;;;;1.43;85.15;95406.53;4975908;28;20164;-80
2023/01/12 06:26:24;;;;;;;23.65;11.63;;;;;;;0.95;84.70;95340.91;4973350;28;20070;-79
2023/01/12 06:28:50;;;;;;;21.33;11.25;;;;;;;1.41;84.71;95400.72;4958625;28;20742;-78
2023/01/12 06:31:15;;;;;;;34.65;14.07;;;;;;;1.96;84.96;95478.59;4974915;28;20576;-77
2023/01/12 06:33:41;;;;;;;27.20;11.98;;;;;;;1.71;85.05;95447.97;4976049;28;20477;-77
2023/01/12 06:36:07;;;;;;;28.75;11.50;;;;;;;1.69;85.20;95443.97;4958296;28;20038;-78
2023/01/12 06:38:34;;;;;;;24.23;10.80;;;;;;;1.56;84.93;95410.88;4956320;28;20461;-78
2023/01/12 06:42:27;;;;;;;23.73;11.68;;;;;;;1.50;85.01;95445.69;4976811;28;20081;-77
2023/01/12 06:43:58;;;;;;;22.05;11.40;;;;;;;1.52;85.62;95452.31;4977588;28;20042;-78
2023/01/12 06:46:25;;;;;;;34.38;13.15;;;;;;;1.29;85.65;95401.59;4976539;28;20056;-79
2023/01/12 06:48:51;;;;;;;32.67;14.52;;;;;;;1.90;85.34;95490.69;4978101;28;20428;-79
2023/01/12 06:51:16;;;;;;;25.20;12.57;;;;;;;1.92;85.38;95491.28;4977122;28;20037;-77
2023/01/12 06:53:41;;;;;;;28.55;13.68;;;;;;;1.93;84.93;95493.69;4974329;28;20038;-78
2023/01/12 06:56:07;;;;;;;25.17;13.15;;;;;;;1.96;85.07;95487.22;4973993;28;20058;-80
2023/01/12 06:58:32;;;;;;;25.27;11.95;;;;;;;1.84;85.34;95492.31;4975317;28;20050;-79
2023/01/12 07:01:02;;;;;;;27.70;12.88;;;;;;;1.64;85.23;95449.84;4957221;28;20539;-77
2023/01/12 07:03:32;;;;;;;27.88;11.90;;;;;;;0.64;84.94;95305.13;4970598;28;20030;-77
2023/01/12 07:05:59;;;;;;;22.55;11.18;;;;;;;1.89;84.80;95508.22;4973540;28;20038;-78
2023/01/12 07:08:24;;;;;;;25.48;11.98;;;;;;;1.85;85.41;95499.16;4972641;28;20027;-77
2023/01/12 07:10:49;;;;;;;29.20;12.32;;;;;;;1.73;84.97;95468.69;4961111;28;20586;-76
2023/01/12 07:13:16;;;;;;;25.48;11.68;;;;;;;1.02;84.52;95357.34;4963849;28;20042;-83
2023/01/12 07:15:42;;;;;;;33.40;13.00;;;;;;;1.65;85.07;95440.97;4971599;28;20037;-78
2023/01/12 07:18:07;;;;;;;28.52;11.90;;;;;;;1.40;84.91;95401.72;4979802;28;20038;-78
2023/01/12 07:20:33;;;;;;;26.42;12.73;;;;;;;1.85;84.96;95456.53;4979850;28;20034;-77
2023/01/12 07:22:59;;;;;;;27.40;11.70;;;;;;;1.86;84.86;95471.19;4976196;28;20054;-77
2023/01/12 07:25:25;;;;;;;20.50;10.75;;;;;;;1.51;84.60;95444.69;4976769;28;20131;-78
2023/01/12 07:27:52;;;;;;;33.85;12.60;;;;;;;1.78;85.51;95485.34;4980865;28;20034;-77
2023/01/12 07:30:20;;;;;;;21.73;10.82;;;;;;;2.02;84.98;95504.69;4975354;28;20032;-78
2023/01/12 07:32:46;;;;;;;25.42;11.20;;;;;;;1.99;85.18;95496.44;4958386;28;20054;-77
2023/01/12 07:35:12;;;;;;;25.77;11.40;;;;;;;1.51;85.47;95445.50;4986559;28;20125;-78
2023/01/12 07:37:38;;;;;;;23.80;11.82;;;;;;;1.48;85.40;95418.97;4958932;28;20475;-77
2023/01/12 07:40:05;;;;;;;28.02;10.20;;;;;;;2.00;85.09;95505.91;4980119;28;20471;-78
2023/01/12 07:42:32;;;;;;;20.10;11.27;;;;;;;1.71;85.61;95460.25;4978664;28;20034;-78
2023/01/12 07:44:57;;;;;;;27.13;12.57;;;;;;;1.75;85.34;95456.22;4966267;28;20034;-78
2023/01/12 07:47:23;;;;;;;32.03;12.75;;;;;;;1.55;85.30;95394.38;4979150;28;20046;-78
2023/01/12 07:49:49;;;;;;;22.38;10.70;;;;;;;1.62;84.31;95403.97;4962975;28;20030;-80
2023/01/12 07:52:18;;;;;;;21.08;10.45;;;;;;;2.43;84.22;95492.91;4953612;28;20416;-79
2023/01/12 07:54:43;;;;;;;23.98;11.23;;;;;;;1.98;83.32;95409.34;4962440;28;20038;-77
2023/01/12 07:57:10;;;;;;;23.55;11.93;;;;;;;2.13;83.48;95449.06;4977621;28;20042;-78
2023/01/12 07:59:35;;;;;;;27.25;10.95;;;;;;;2.48;82.96;95498.28;4978946;28;20080;-78
2023/01/12 08:02:01;;;;;;;29.20;11.55;;;;;;;2.33;83.21;95494.19;4965587;28;20489;-77
2023/01/12 08:04:26;;;;;;;29.70;11.30;;;;;;;1.74;82.82;95428.44;4980328;28;20069;-81
2023/01/12 08:06:52;;;;;;;29.88;10.77;;;;;;;2.56;82.92;95505.88;4961471;28;20398;-78
2023/01/12 08:09:17;;;;;;;28.67;11.50;;;;;;;1.96;82.55;95402.72;4968871;28;20034;-80
2023/01/12 08:11:43;;;;;;;20.17;9.65;;;;;;;1.63;82.12;95359.34;4977782;28;20097;-77
2023/01/12 08:14:19;;;;;;;27.63;10.07;;;;;;;2.16;82.88;95435.53;4967919;28;20041;-78
2023/01/12 08:16:48;;;;;;;25.45;9.40;;;;;;;2.12;81.82;95423.13;4953457;28;20034;-78
2023/01/12 08:19:20;;;;;;;16.13;8.38;;;;;;;2.08;81.95;95435.81;4978407;28;20497;-78
2023/01/12 08:21:55;;;;;;;19.63;9.60;;;;;;;2.26;82.11;95456.81;4977920;28;20326;-78
2023/01/12 08:24:26;;;;;;;30.30;9.68;;;;;;;1.91;82.29;95400.75;4979346;28;20040;-77
2023/01/12 08:26:55;;;;;;;22.65;9.50;;;;;;;2.66;82.14;95499.13;4978852;28;20034;-79
2023/01/12 08:29:30;;;;;;;18.98;7.72;;;;;;;2.70;81.82;95499.50;4960846;28;20042;-77
2023/01/12 08:32:03;;;;;;;14.73;7.53;;;;;;;1.92;81.96;95381.41;4975598;28;20030;-78
2023/01/12 08:34:34;;;;;;;12.93;6.88;;;;;;;2.71;81.71;95506.34;4963392;28;20113;-77
2023/01/12 08:37:03;;;;;;;14.45;6.43;;;;;;;2.24;81.62;95439.72;4976006;28;20058;-79
2023/01/12 08:39:28;;;;;;;13.18;7.53;;;;;;;1.85;81.62;95370.22;4973964;28;20030;-78
2023/01/12 08:41:54;;;;;;;10.07;6.15;;;;;;;1.46;81.63;95306.78;4969218;28;20559;-78
2023/01/12 08:44:20;;;;;;;8.85;5.78;;;;;;;2.10;81.41;95418.09;4958843;28;20030;-78
2023/01/12 08:46:48;;;;;;;18.58;6.68;;;;;;;2.72;81.09;95500.88;4959570;28;20044;-79
2023/01/12 08:49:15;;;;;;;14.77;7.00;;;;;;;2.60;80.74;95470.38;4974500;28;20098;-80
2023/01/12 08:51:41;;;;;;;12.90;5.60;;;;;;;1.88;80.88;95383.69;4968799;28;20045;-80
2023/01/12 08:54:08;;;;;;;11.27;5.05;;;;;;;2.69;80.29;95505.75;4970154;28;20042;-78
2023/01/12 08:56:34;;;;;;;8.25;4.88;;;;;;;2.45;80.12;95490.84;4979148;28;20121;-80
2023/01/12 08:59:00;;;;;;;11.30;5.40;;;;;;;1.78;80.01;95375.50;4962618;28;20093;-80
2023/01/12 09:01:26;;;;;;;7.25;4.70;;;;;;;2.70;80.21;95518.63;4958299;28;20038;-79
2023/01/12 09:03:54;;;;;;;8.48;4.97;;;;;;;2.63;80.36;95501.38;4961373;28;20092;-78
2023/01/12 09:06:31;;;;;;;7.00;4.63;;;;;;;2.72;80.14;95510.56;4977233;28;20045;-79
2023/01/12 09:08:59;;;;;;;8.55;4.97;;;;;;;2.74;80.08;95521.63;4952945;28;20125;-80
2023/01/12 09:11:26;;;;;;;10.73;5.65;;;;;;;2.14;79.70;95407.97;4979329;28;20777;-79
2023/01/12 09:13:52;;;;;;;15.05;6.20;;;;;;;2.46;79.98;95443.53;4983129;28;20062;-79
2023/01/12 09:16:19;;;;;;;7.82;4.50;;;;;;;2.45;78.93;95473.34;4973334;28;20137;-79
2023/01/12 09:18:45;;;;;;;8.25;4.55;;;;;;;2.30;78.87;95431.00;4963592;28;20059;-79
2023/01/12 09:21:16;;;;;;;10.25;4.13;;;;;;;2.76;78.44;95492.56;4977847;28;20034;-79
2023/01/12 09:23:42;;;;;;;11.07;4.88;;;;;;;2.48;78.26;95435.47;4973351;28;20444;-78
2023/01/12 09:26:10;;;;;;;9.73;4.78;;;;;;;2.30;77.83;95407.44;4966551;28;20157;-78
2023/01/12 09:28:36;;;;;;;10.73;4.72;;;;;;;2.41;78.68;95419.03;4976536;28;20030;-79
2023/01/12 09:31:10;;;;;;;16.45;5.68;;;;;;;2.48;78.41;95397.00;4978502;28;20045;-79
2023/01/12 09:33:37;;;;;;;8.05;5.03;;;;;;;2.80;78.01;95457.09;4959188;28;20045;-78
2023/01/12 09:36:08;;;;;;;9.85;5.85;;;;;;;3.18;78.19;95498.78;4974886;28;20770;-79
2023/01/12 09:38:35;;;;;;;14.15;6.60;;;;;;;2.65;77.85;95423.41;4976094;28;20092;-80
2023/01/12 09:41:09;;;;;;;10.55;5.60;;;;;;;3.14;77.51;95505.47;4976066;28;20073;-79
2023/01/12 09:49:21;;;;;;;9.25;5.20;;;;;;;2.54;77.25;95432.78;4979133;28;20111;-78
2023/01/12 09:51:57;;;;;;;16.42;5.28;;;;;;;2.71;77.31;95459.19;4958569;28;20669;-77
2023/01/12 09:54:23;;;;;;;7.70;4.57;;;;;;;3.00;77.42;95500.38;4969513;28;20042;-79
2023/01/12 09:57:25;;;;;;;10.10;4.95;;;;;;;2.60;77.30;95416.19;4975943;28;20053;-78
2023/01/12 09:59:50;;;;;;;;;;;;;;;3.10;77.06;95492.03;4975130;28;20034;-79
2023/01/12 10:02:15;;;;;;;9.90;5.05;;;;;;;3.19;77.17;95484.66;4975327;28;20355;-78
2023/01/12 10:04:42;;;;;;;9.98;5.13;;;;;;;2.67;76.93;95406.44;4971384;28;20029;-78
2023/01/12 10:07:13;;;;;;;18.55;5.78;;;;;;;2.98;76.85;95417.78;4959763;28;20635;-80
2023/01/12 10:09:39;;;;;;;12.02;5.60;;;;;;;2.61;75.89;95368.03;4960567;28;20030;-78
2023/01/12 10:12:20;;;;;;;9.15;5.32;;;;;;;2.89;75.91;95408.63;4969149;28;20031;-79
2023/01/12 10:14:56;;;;;;;9.60;5.07;;;;;;;3.51;75.52;95499.19;4973945;28;20374;-78
2023/01/12 10:17:38;;;;;;;8.18;4.70;;;;;;;3.41;75.59;95512.81;4974858;28;20493;-79
2023/01/12 10:20:20;;;;;;;16.55;5.70;;;;;;;3.34;75.91;95496.38;4974625;28;20661;-77
2023/01/12 10:22:53;;;;;;;9.10;5.80;;;;;;;3.29;76.03;95495.41;4975163;28;20054;-78
2023/01/12 10:25:28;;;;;;;20.17;5.93;;;;;;;3.37;76.48;95489.88;4971256;28;20166;-77
2023/01/12 10:27:56;;;;;;;12.88;4.93;;;;;;;3.13;75.86;95467.97;4971080;28;20739;-78
2023/01/12 10:30:31;;;;;;;8.55;4.55;;;;;;;2.84;76.16;95430.22;4958718;28;20042;-77
2023/01/12 10:33:07;;;;;;;7.22;4.32;;;;;;;3.27;75.91;95487.81;4958629;28;20540;-79
2023/01/12 10:35:32;;;;;;;11.98;4.65;;;;;;;2.72;76.31;95432.00;4945936;28;20683;-77
2023/01/12 10:37:58;;;;;;;7.90;4.90;;;;;;;2.64;76.16;95398.25;4959098;28;20129;-79
2023/01/12 10:40:30;;;;;;;7.15;4.28;;;;;;;3.08;76.30;95494.06;4961679;28;20061;-76
2023/01/12 10:43:18;;;;;;;16.73;5.68;;;;;;;3.27;76.26;95487.00;4961425;28;20133;-76
2023/01/12 10:46:00;;;;;;;10.13;5.50;;;;;;;3.32;75.82;95490.56;4975677;28;20046;-76
2023/01/12 10:48:25;;;;;;;10.10;5.72;;;;;;;3.20;76.27;95476.59;4975567;28;20108;-76
2023/01/12 10:50:59;;;;;;;8.13;4.40;;;;;;;2.75;75.54;95407.19;4961077;28;20472;-76
2023/01/12 10:53:41;;;;;;;12.02;5.03;;;;;;;2.53;76.23;95380.63;4965437;28;20048;-76
2023/01/12 10:56:26;;;;;;;9.52;4.72;;;;;;;2.06;76.40;95316.72;4961975;28;20128;-79
2023/01/12 10:59:01;;;;;;;11.25;6.55;;;;;;;3.09;76.22;95440.63;4965643;28;20409;-76
2023/01/12 11:01:50;;;;;;;12.35;5.00;;;;;;;2.97;75.79;95409.16;4980717;28;20402;-78
2023/01/12 11:04:20;;;;;;;10.02;4.85;;;;;;;3.33;74.83;95471.19;4980473;28;20603;-78
2023/01/12 11:07:10;;;;;;;19.27;5.63;;;;;;;3.43;75.23;95463.56;4979213;28;20091;-78
2023/01/12 11:09:36;;;;;;;8.30;4.32;;;;;;;2.61;74.56;95339.25;4967323;28;20116;-81
2023/01/12 11:12:22;;;;;;;10.23;4.65;;;;;;;3.17;74.66;95427.22;4978669;28;20069;-80
2023/01/12 11:15:09;;;;;;;5.88;3.97;;;;;;;3.37;74.28;95461.84;4971291;28;20042;-79
2023/01/12 11:17:37;;;;;;;8.65;4.57;;;;;;;3.38;74.41;95454.78;4981949;28;20034;-79
2023/01/12 11:20:14;;;;;;;9.88;5.65;;;;;;;3.55;74.82;95463.63;4982811;28;20038;-79
2023/01/12 11:22:41;;;;;;;9.10;4.65;;;;;;;2.98;74.09;95373.22;4938314;28;20094;-78
2023/01/12 11:25:23;;;;;;;17.50;5.13;;;;;;;3.60;74.21;95470.81;4925658;28;20050;-79
2023/01/12 11:28:03;;;;;;;12.85;4.65;;;;;;;3.47;74.10;95442.97;4930170;28;20050;-77
2023/01/12 11:30:40;;;;;;;10.52;5.82;;;;;;;2.53;74.23;95275.91;4928746;28;20839;-77
2023/01/12 11:33:23;;;;;;;14.68;6.18;;;;;;;3.59;74.11;95432.50;4925625;28;20034;-77
2023/01/12 11:36:04;;;;;;;16.70;6.43;;;;;;;3.91;73.86;95452.22;4930786;28;20129;-77
2023/01/12 11:38:40;;;;;;;15.27;6.47;;;;;;;3.36;73.76;95384.22;4942697;28;20035;-76
2023/01/12 11:41:16;;;;;;;14.15;6.25;;;;;;;3.79;73.17;95443.53;4934893;28;20402;-76
2023/01/12 11:44:29;;;;;;;10.75;5.13;;;;;;;3.71;73.31;95473.50;4935164;28;20066;-76
2023/01/12 11:47:07;;;;;;;5.38;4.07;;;;;;;3.52;73.39;95432.59;4952183;28;20688;-76
2023/01/12 11:49:38;;;;;;;14.48;4.43;;;;;;;3.69;73.62;95449.31;4934521;29;20086;-77
2023/01/12 11:52:07;;;;;;;9.10;4.68;;;;;;;3.70;73.97;95443.03;4936230;28;20039;-77
2023/01/12 11:54:36;;;;;;;7.47;4.50;;;;;;;3.68;73.75;95441.66;4951925;28;20042;-77
2023/01/12 11:57:25;;;;;;;12.70;5.07;;;;;;;3.78;74.10;95440.09;4940368;28;20041;-78
2023/01/12 12:00:19;;;;;;;14.77;5.65;;;;;;;3.93;73.88;95438.88;4947599;28;20114;-77
2023/01/12 12:03:04;;;;;;;5.97;3.70;;;;;;;3.97;73.38;95430.31;4941541;28;20126;-77
2023/01/12 12:06:02;;;;;;;7.80;4.88;;;;;;;3.94;73.28;95428.16;4952826;28;20552;-77
2023/01/12 12:08:49;;;;;;;5.10;3.88;;;;;;;3.95;72.91;95428.97;4909429;29;20485;-77
2023/01/12 12:14:50;;;;;;;5.50;3.83;;;;;;;3.92;72.79;95427.56;3563970;23;20055;-76
2023/01/12 12:17:34;;;;;;;7.85;4.10;;;;;;;3.94;72.72;95433.41;4951044;28;20042;-76
2023/01/12 12:20:23;;;;;;;9.25;4.50;;;;;;;3.69;73.03;95411.78;4946170;28;20038;-78
2023/01/12 12:23:11;;;;;;;7.47;4.88;;;;;;;3.29;73.73;95338.16;4948433;28;20092;-77